createdAt,value
2023-01-19T00:02:51.166Z,1.30
2023-01-19T00:07:53.436Z,1.47
2023-01-19T00:12:55.761Z,1.85
2023-01-19T00:17:58.027Z,1.17
2023-01-19T00:23:00.796Z,1.42
2023-01-19T00:28:03.364Z,1.16
2023-01-19T00:33:05.826Z,1.32
2023-01-19T00:38:08.461Z,1.40
2023-01-19T00:43:10.785Z,1.07
2023-01-19T00:48:13.010Z,1.31
2023-01-19T00:53:15.436Z,1.32
2023-01-19T00:58:17.783Z,1.53
2023-01-19T01:03:20.140Z,1.45
2023-01-19T01:08:22.385Z,1.42
2023-01-19T01:13:27.512Z,1.47
2023-01-19T01:18:30.476Z,1.48
2023-01-19T01:23:33.969Z,1.60
2023-01-19T01:28:36.223Z,1.64
2023-01-19T01:33:39.901Z,1.48
2023-01-19T01:38:43.853Z,1.20
2023-01-19T01:43:58.487Z,1.44
2023-01-19T01:49:13.662Z,1.35
2023-01-19T01:54:27.356Z,0.96
2023-01-19T01:59:43.555Z,1.42
2023-01-19T02:04:51.305Z,1.06
2023-01-19T02:10:12.637Z,1.24
2023-01-19T02:15:20.300Z,1.32
2023-01-19T02:20:26.829Z,1.06
2023-01-19T02:25:29.205Z,1.27
2023-01-19T02:30:33.110Z,1.28
2023-01-19T02:35:38.239Z,1.44
2023-01-19T02:40:43.184Z,1.40
2023-01-19T02:45:46.795Z,1.27
2023-01-19T02:51:00.816Z,1.46
2023-01-19T02:56:42.990Z,1.10
2023-01-19T03:02:17.764Z,1.33
2023-01-19T03:07:45.226Z,1.19
2023-01-19T03:13:04.943Z,0.98
2023-01-19T03:18:11.020Z,1.23
2023-01-19T03:23:16.222Z,1.06
2023-01-19T03:28:22.871Z,1.41
2023-01-19T03:33:39.192Z,1.19
2023-01-19T03:38:44.130Z,0.96
2023-01-19T03:43:50.724Z,0.89
2023-01-19T03:48:54.374Z,0.94
2023-01-19T03:53:56.627Z,1.03
2023-01-19T03:58:58.847Z,1.17
2023-01-19T04:04:01.199Z,1.11
2023-01-19T04:09:03.506Z,1.14
2023-01-19T04:14:05.881Z,1.25
2023-01-19T04:19:08.165Z,1.10
2023-01-19T04:24:11.280Z,1.23
2023-01-19T04:29:14.453Z,1.27
2023-01-19T04:34:16.778Z,1.26
2023-01-19T04:39:19.061Z,1.12
2023-01-19T04:44:21.171Z,1.13
2023-01-19T04:49:24.050Z,0.90
2023-01-19T04:54:27.621Z,1.31
2023-01-19T04:59:29.859Z,1.12
2023-01-19T05:04:31.988Z,0.88
2023-01-19T05:09:34.180Z,1.10
2023-01-19T05:14:36.559Z,1.00
2023-01-19T05:19:39.259Z,1.14
2023-01-19T05:24:41.474Z,1.19
2023-01-19T05:29:43.618Z,1.21
2023-01-19T05:34:45.761Z,1.32
2023-01-19T05:39:47.875Z,1.48
2023-01-19T05:44:50.010Z,1.27
2023-01-19T05:49:52.234Z,1.34
2023-01-19T05:54:55.278Z,1.37
2023-01-19T05:59:57.494Z,1.68
2023-01-19T06:04:59.827Z,1.21
2023-01-19T06:10:02.076Z,1.25
2023-01-19T06:15:04.888Z,1.84
2023-01-19T06:20:07.961Z,1.32
2023-01-19T06:25:11.665Z,1.83
2023-01-19T06:30:14.724Z,1.18
2023-01-19T06:35:18.402Z,0.94
2023-01-19T06:40:20.646Z,1.32
2023-01-19T06:45:22.738Z,0.87
2023-01-19T06:50:24.844Z,0.66
2023-01-19T06:55:28.009Z,0.77
2023-01-19T07:00:30.480Z,0.68
2023-01-19T07:05:33.979Z,1.05
2023-01-19T07:11:24.368Z,0.96
2023-01-19T07:15:59.264Z,1.06
2023-01-19T07:21:01.830Z,1.54
2023-01-19T07:26:04.058Z,1.15
2023-01-19T07:31:06.774Z,1.35
2023-01-19T07:36:09.571Z,1.38
2023-01-19T07:41:12.247Z,1.09
2023-01-19T07:46:14.577Z,1.10
2023-01-19T07:51:19.568Z,1.07
2023-01-19T07:56:22.465Z,1.24
2023-01-19T08:01:24.788Z,1.44
2023-01-19T08:06:34.076Z,1.36
2023-01-19T08:11:36.837Z,1.62
2023-01-19T08:16:39.040Z,1.53
2023-01-19T08:21:41.295Z,1.84
2023-01-19T08:26:43.635Z,1.50
2023-01-19T08:31:46.040Z,2.02
2023-01-19T08:36:48.265Z,2.05
2023-01-19T08:41:54.064Z,2.50
2023-01-19T08:46:56.176Z,2.40
2023-01-19T08:51:58.385Z,2.61
2023-01-19T08:57:00.603Z,2.79
2023-01-19T09:02:02.804Z,2.99
2023-01-19T09:12:08.302Z,1.93
2023-01-19T09:17:10.601Z,2.17
2023-01-19T09:22:12.697Z,1.99
2023-01-19T09:27:14.953Z,2.24
2023-01-19T09:32:17.275Z,2.25
2023-01-19T09:37:19.376Z,1.84
2023-01-19T09:42:35.011Z,2.22
2023-01-19T09:47:38.437Z,2.32
2023-01-19T09:52:44.835Z,2.23
2023-01-19T09:57:47.048Z,2.86
2023-01-19T10:02:57.927Z,2.70
2023-01-19T10:08:44.135Z,2.58
2023-01-19T10:13:52.395Z,2.66
2023-01-19T10:19:00.419Z,2.58
2023-01-19T10:24:20.155Z,2.61
2023-01-19T10:29:37.843Z,2.49
2023-01-19T10:34:41.657Z,2.39
2023-01-19T10:39:53.033Z,2.67
2023-01-19T10:44:55.607Z,2.19
2023-01-19T10:49:58.055Z,2.80
2023-01-19T10:55:04.395Z,2.67
2023-01-19T11:00:30.327Z,2.56
2023-01-19T11:05:34.750Z,2.02
2023-01-19T11:10:38.583Z,2.19
2023-01-19T11:15:57.636Z,2.07
2023-01-19T11:21:04.039Z,2.72
2023-01-19T11:26:06.616Z,3.14
2023-01-19T11:31:14.793Z,2.82
2023-01-19T11:36:25.660Z,2.87
2023-01-19T11:41:37.650Z,3.19
2023-01-19T11:46:45.239Z,3.17
2023-01-19T11:52:15.643Z,3.70
2023-01-19T11:57:18.052Z,3.06
2023-01-19T12:02:43.801Z,3.16
2023-01-19T12:07:48.304Z,3.38
2023-01-19T12:12:52.278Z,3.36
2023-01-19T12:18:00.772Z,3.17
2023-01-19T12:23:16.675Z,3.41
2023-01-19T12:28:33.287Z,3.26
2023-01-19T12:33:38.485Z,3.37
2023-01-19T12:38:52.908Z,3.14
2023-01-19T12:44:16.524Z,3.78
2023-01-19T12:49:37.884Z,3.85
2023-01-19T12:55:15.179Z,3.41
2023-01-19T13:00:23.437Z,3.31
2023-01-19T13:05:32.864Z,3.21
2023-01-19T13:11:00.278Z,3.42
2023-01-19T13:16:29.644Z,3.31
2023-01-19T13:21:39.104Z,3.25
2023-01-19T13:26:50.573Z,3.00
2023-01-19T13:31:54.821Z,2.97
2023-01-19T13:37:02.159Z,2.83
2023-01-19T13:42:43.878Z,3.53
2023-01-19T13:47:49.022Z,3.09
2023-01-19T13:52:54.070Z,3.11
2023-01-19T13:57:57.399Z,3.07
2023-01-19T14:03:21.625Z,3.36
2023-01-19T14:08:25.680Z,2.97
2023-01-19T14:13:41.701Z,3.69
2023-01-19T14:18:44.182Z,3.29
2023-01-19T14:24:06.136Z,3.57
2023-01-19T14:29:29.506Z,3.31
2023-01-19T14:34:44.606Z,3.22
2023-01-19T14:39:51.539Z,3.08
2023-01-19T14:44:56.075Z,2.95
2023-01-19T14:50:07.486Z,3.33
2023-01-19T14:55:45.490Z,3.55
2023-01-19T15:00:49.054Z,3.94
2023-01-19T15:05:51.668Z,3.82
2023-01-19T15:10:53.915Z,3.21
2023-01-19T15:15:56.290Z,3.44
2023-01-19T15:21:03.219Z,3.56
2023-01-19T15:26:05.915Z,3.14
2023-01-19T15:31:09.469Z,3.60
2023-01-19T15:36:18.307Z,3.52
2023-01-19T15:41:27.469Z,3.24
2023-01-19T15:46:29.785Z,3.38
2023-01-19T15:51:32.707Z,3.19
2023-01-19T15:56:35.024Z,2.98
2023-01-19T16:01:37.560Z,3.08
2023-01-19T16:06:40.046Z,2.98
2023-01-19T16:11:42.321Z,3.23
2023-01-19T16:16:46.266Z,3.03
2023-01-19T16:21:48.470Z,2.93
2023-01-19T16:26:50.748Z,2.74
2023-01-19T16:31:52.887Z,3.07
2023-01-19T16:36:55.230Z,2.79
2023-01-19T16:41:57.370Z,2.98
2023-01-19T16:46:59.535Z,2.69
2023-01-19T16:52:02.024Z,2.79
2023-01-19T16:57:04.280Z,2.59
2023-01-19T17:02:07.404Z,3.15
2023-01-19T17:07:09.721Z,3.12
2023-01-19T17:12:12.722Z,3.15
2023-01-19T17:17:15.134Z,2.73
2023-01-19T17:22:17.240Z,2.88
2023-01-19T17:27:19.331Z,3.16
2023-01-19T17:32:21.475Z,3.34
2023-01-19T17:37:23.923Z,2.98
2023-01-19T17:42:26.014Z,3.36
2023-01-19T17:47:28.110Z,3.42
2023-01-19T17:52:30.205Z,2.75
2023-01-19T17:57:32.496Z,2.71
2023-01-19T18:02:34.889Z,2.67
2023-01-19T18:07:37.046Z,2.59
2023-01-19T18:12:39.422Z,2.95
2023-01-19T18:17:41.496Z,2.90
2023-01-19T18:22:43.564Z,2.99
2023-01-19T18:27:45.826Z,3.24
2023-01-19T18:32:48.089Z,3.63
2023-01-19T18:37:50.169Z,3.68
2023-01-19T18:42:52.272Z,3.99
2023-01-19T18:47:54.371Z,3.06
2023-01-19T18:52:56.470Z,2.94
2023-01-19T18:57:58.683Z,3.18
2023-01-19T19:03:01.562Z,3.40
2023-01-19T19:08:04.840Z,3.69
2023-01-19T19:13:07.150Z,3.15
2023-01-19T19:18:11.192Z,3.66
2023-01-19T19:23:13.358Z,2.99
2023-01-19T19:28:15.625Z,2.82
2023-01-19T19:33:17.876Z,2.78
2023-01-19T19:38:20.105Z,3.31
2023-01-19T19:43:22.990Z,2.82
2023-01-19T19:48:25.717Z,3.59
2023-01-19T19:53:28.030Z,3.04
2023-01-19T19:58:31.062Z,2.69
2023-01-19T20:03:33.155Z,3.64
2023-01-19T20:08:35.947Z,2.58
2023-01-19T20:13:40.664Z,2.64
2023-01-19T20:18:48.544Z,2.37
2023-01-19T20:23:54.231Z,2.57
2023-01-19T20:29:03.109Z,1.75
2023-01-19T20:34:08.957Z,1.89
2023-01-19T20:39:11.435Z,1.60
2023-01-19T20:44:19.748Z,1.82
2023-01-19T20:49:22.376Z,2.21
2023-01-19T20:54:28.040Z,2.32
2023-01-19T20:59:30.265Z,2.46
2023-01-19T21:04:32.369Z,2.34
2023-01-19T21:09:34.986Z,2.10
2023-01-19T21:14:37.401Z,2.28
2023-01-19T21:19:39.533Z,2.75
2023-01-19T21:24:44.322Z,2.87
2023-01-19T21:29:48.555Z,2.83
2023-01-19T21:34:50.827Z,2.78
2023-01-19T21:39:52.964Z,2.73
2023-01-19T21:44:55.173Z,3.19
2023-01-19T21:49:57.285Z,3.49
2023-01-19T21:54:59.507Z,3.46
2023-01-19T22:00:01.678Z,2.65
2023-01-19T22:05:06.669Z,2.56
2023-01-19T22:10:11.124Z,2.62
2023-01-19T22:15:13.405Z,3.15
2023-01-19T22:20:16.061Z,2.71
2023-01-19T22:25:21.962Z,2.97
2023-01-19T22:30:24.248Z,2.64
2023-01-19T22:35:26.517Z,2.89
2023-01-19T22:40:28.880Z,2.85
2023-01-19T22:45:30.965Z,2.65
2023-01-19T22:50:33.164Z,2.57
2023-01-19T22:55:35.711Z,2.83
2023-01-19T23:00:37.949Z,2.47
2023-01-19T23:05:40.174Z,3.32
2023-01-19T23:10:42.472Z,3.06
2023-01-19T23:15:44.801Z,2.42
2023-01-19T23:20:47.171Z,3.34
2023-01-19T23:26:08.452Z,3.40
2023-01-19T23:31:23.095Z,2.83
2023-01-19T23:36:28.387Z,3.36
2023-01-19T23:41:34.656Z,3.23
2023-01-19T23:46:36.998Z,2.10
2023-01-19T23:51:40.747Z,2.92
2023-01-19T23:56:43.228Z,3.33
